Time;durP1;ratioP1;P1;durP2;ratioP2;P2;SDS_P1;SDS_P2;PMS_P1;PMS_P2;Temp;Humidity;BMP_temperature;BMP_pressure;BME280_temperature;BME280_humidity;BME280_pressure;Samples;Min_cycle;Max_cycle;Signal;HPM_P1;HPM_P2
2023/04/09 00:01:11;;;;;;;59.85;36.28;;;11.40;99.90;;;;;;4936401;29;20481;-73
2023/04/09 00:03:37;;;;;;;59.55;34.63;;;11.50;99.90;;;;;;4927158;28;20036;-73
2023/04/09 00:06:04;;;;;;;64.60;38.55;;;11.50;99.90;;;;;;4933173;29;20020;-72
2023/04/09 00:08:30;;;;;;;65.10;39.38;;;11.50;99.90;;;;;;4926367;29;20080;-72
2023/04/09 00:10:57;;;;;;;57.67;34.17;;;11.60;99.90;;;;;;4931949;29;20530;-72
2023/04/09 00:13:22;;;;;;;60.83;36.65;;;11.60;99.90;;;;;;4934994;29;20030;-72
2023/04/09 00:15:48;;;;;;;59.70;34.22;;;11.60;99.90;;;;;;4930917;29;20028;-72
2023/04/09 00:18:14;;;;;;;66.88;38.53;;;11.60;99.90;;;;;;4930723;29;20075;-72
2023/04/09 00:20:40;;;;;;;67.05;38.10;;;11.60;99.90;;;;;;4937367;29;20039;-72
2023/04/09 00:23:06;;;;;;;61.20;37.00;;;11.60;99.90;;;;;;4927007;29;20102;-73
2023/04/09 00:25:31;;;;;;;68.05;39.33;;;11.60;99.90;;;;;;4930383;29;20139;-72
2023/04/09 00:27:57;;;;;;;70.80;42.45;;;11.60;99.90;;;;;;4924229;29;20116;-72
2023/04/09 00:30:23;;;;;;;71.22;40.88;;;11.60;99.90;;;;;;4929997;29;20032;-72
2023/04/09 00:32:49;;;;;;;75.55;44.53;;;11.70;99.90;;;;;;4935492;29;20035;-73
2023/04/09 00:35:16;;;;;;;73.65;43.33;;;11.70;99.90;;;;;;4931461;29;20102;-72
2023/04/09 00:37:42;;;;;;;79.35;47.45;;;11.70;99.90;;;;;;4929769;29;20044;-72
2023/04/09 00:40:08;;;;;;;86.63;47.03;;;11.70;99.90;;;;;;4929462;29;20027;-72
2023/04/09 00:42:36;;;;;;;70.97;41.88;;;11.70;99.90;;;;;;4932947;29;20027;-72
2023/04/09 00:45:02;;;;;;;83.55;47.53;;;11.70;99.90;;;;;;4935398;29;20042;-72
2023/04/09 00:47:29;;;;;;;75.57;45.45;;;11.70;99.90;;;;;;4925922;29;20385;-72
2023/04/09 00:49:56;;;;;;;79.63;45.05;;;11.70;99.90;;;;;;4927410;29;20043;-72
2023/04/09 00:52:23;;;;;;;78.47;45.78;;;11.70;99.90;;;;;;4928671;29;20020;-72
2023/04/09 00:54:50;;;;;;;72.93;42.22;;;11.70;99.90;;;;;;4929435;29;20577;-72
2023/04/09 00:57:16;;;;;;;65.15;39.38;;;11.70;99.90;;;;;;4926684;29;20136;-72
2023/04/09 00:59:42;;;;;;;63.28;37.42;;;11.70;99.90;;;;;;4933261;29;20040;-72
2023/04/09 01:02:08;;;;;;;71.65;40.95;;;11.60;99.90;;;;;;4929529;29;20544;-72
2023/04/09 01:04:36;;;;;;;75.40;45.08;;;11.70;99.90;;;;;;4931704;29;20031;-71
2023/04/09 01:07:11;;;;;;;72.82;41.35;;;11.70;99.90;;;;;;4922445;29;20119;-72
2023/04/09 01:09:42;;;;;;;75.88;41.97;;;11.70;99.90;;;;;;4919636;29;20429;-72
2023/04/09 01:12:39;;;;;;;73.38;43.13;;;11.60;99.90;;;;;;4929497;29;20042;-72
2023/04/09 01:15:08;;;;;;;78.03;47.10;;;11.70;99.90;;;;;;4934021;29;20034;-72
2023/04/09 01:17:43;;;;;;;78.15;42.75;;;11.70;99.90;;;;;;4924335;29;20031;-72
2023/04/09 01:20:21;;;;;;;80.28;45.30;;;11.70;99.90;;;;;;4926225;29;20114;-72
2023/04/09 01:23:20;;;;;;;78.20;44.20;;;11.70;99.90;;;;;;4930493;29;20109;-72
2023/04/09 01:26:02;;;;;;;69.75;41.47;;;11.60;99.90;;;;;;4933785;29;20077;-72
2023/04/09 01:28:47;;;;;;;75.13;42.35;;;11.50;99.90;;;;;;4926017;29;20036;-72
2023/04/09 01:31:17;;;;;;;82.80;47.53;;;11.50;99.90;;;;;;4923873;29;20088;-72
2023/04/09 01:33:43;;;;;;;84.55;48.70;;;11.50;99.90;;;;;;4928482;29;20226;-72
2023/04/09 01:36:10;;;;;;;77.45;44.08;;;11.50;99.90;;;;;;4932754;29;20027;-72
2023/04/09 01:38:41;;;;;;;79.40;47.75;;;11.50;99.90;;;;;;4924892;29;20050;-72
2023/04/09 01:41:15;;;;;;;80.45;46.00;;;11.50;99.90;;;;;;4930559;29;20067;-72
2023/04/09 01:43:42;;;;;;;82.45;46.15;;;11.50;99.90;;;;;;4932277;29;20044;-72
2023/04/09 01:46:09;;;;;;;80.53;45.22;;;11.50;99.90;;;;;;4928216;29;20039;-72
2023/04/09 01:48:36;;;;;;;81.80;45.83;;;11.50;99.90;;;;;;4922668;29;20114;-72
2023/04/09 01:51:03;;;;;;;79.10;44.40;;;11.50;99.90;;;;;;4927615;29;20178;-72
2023/04/09 01:53:29;;;;;;;83.72;45.83;;;11.50;99.90;;;;;;4930242;29;20023;-72
2023/04/09 01:55:57;;;;;;;82.43;46.25;;;11.40;99.90;;;;;;4931023;29;20042;-72
2023/04/09 01:58:24;;;;;;;82.68;48.72;;;11.40;99.90;;;;;;4928870;29;20020;-72
2023/04/09 02:00:52;;;;;;;75.25;44.40;;;11.30;99.90;;;;;;4927543;29;20036;-72
2023/04/09 02:03:27;;;;;;;80.88;47.22;;;11.30;99.90;;;;;;4932481;29;20020;-72
2023/04/09 02:06:06;;;;;;;83.35;48.22;;;11.20;99.90;;;;;;4925419;29;20031;-72
2023/04/09 02:08:34;;;;;;;78.63;47.05;;;11.30;99.90;;;;;;4927249;29;20027;-72
2023/04/09 02:11:03;;;;;;;81.00;45.60;;;11.10;99.90;;;;;;4929755;29;20071;-72
2023/04/09 02:13:31;;;;;;;82.03;46.38;;;11.10;99.90;;;;;;4926824;29;20028;-72
2023/04/09 02:16:00;;;;;;;78.30;46.53;;;11.00;99.90;;;;;;4930148;29;20055;-72
2023/04/09 02:18:27;;;;;;;82.00;50.85;;;11.00;99.90;;;;;;4928228;29;20063;-72
2023/04/09 02:20:57;;;;;;;80.85;45.92;;;10.90;99.90;;;;;;4928460;29;20533;-72
2023/04/09 02:23:24;;;;;;;79.18;45.00;;;10.90;99.90;;;;;;4924515;29;20487;-72
2023/04/09 02:25:51;;;;;;;82.47;45.17;;;10.90;99.90;;;;;;4930075;29;20416;-72
2023/04/09 02:28:17;;;;;;;78.28;43.70;;;10.90;99.90;;;;;;4921439;29;20437;-72
2023/04/09 02:30:42;;;;;;;83.13;45.35;;;10.90;99.90;;;;;;4924000;29;20107;-72
2023/04/09 02:33:08;;;;;;;76.38;43.53;;;10.90;99.90;;;;;;4921008;29;20123;-72
2023/04/09 02:35:34;;;;;;;76.65;44.03;;;10.80;99.90;;;;;;4921683;29;20028;-72
2023/04/09 02:38:00;;;;;;;74.40;43.05;;;10.70;99.90;;;;;;4929576;29;20039;-71
2023/04/09 02:40:26;;;;;;;75.30;42.25;;;10.60;99.90;;;;;;4930128;29;20370;-72
2023/04/09 02:42:52;;;;;;;72.47;42.67;;;10.70;99.90;;;;;;4932970;29;20047;-71
2023/04/09 02:45:18;;;;;;;71.15;42.20;;;10.60;99.90;;;;;;4926909;29;20035;-72
2023/04/09 02:47:44;;;;;;;72.28;42.78;;;10.60;99.90;;;;;;4927348;29;20024;-72
2023/04/09 02:50:10;;;;;;;75.32;41.13;;;10.60;99.90;;;;;;4923869;28;20028;-72
2023/04/09 02:52:36;;;;;;;66.63;39.50;;;10.50;99.90;;;;;;4929674;29;20527;-71
2023/04/09 02:55:02;;;;;;;74.13;41.47;;;10.50;99.90;;;;;;4931325;29;20026;-71
2023/04/09 02:57:32;;;;;;;84.57;46.05;;;10.40;99.90;;;;;;4932467;29;20027;-72
2023/04/09 02:59:57;;;;;;;67.53;39.80;;;10.40;99.90;;;;;;4924437;29;20397;-71
2023/04/09 03:02:23;;;;;;;83.95;45.05;;;10.40;99.90;;;;;;4932411;29;20031;-71
2023/04/09 03:04:49;;;;;;;74.50;41.80;;;10.40;99.90;;;;;;4926994;29;20517;-71
2023/04/09 03:07:15;;;;;;;79.45;44.97;;;10.30;99.90;;;;;;4928593;28;20087;-71
2023/04/09 03:09:40;;;;;;;74.43;43.63;;;10.30;99.90;;;;;;4925009;29;20036;-71
2023/04/09 03:12:06;;;;;;;75.50;44.15;;;10.20;99.90;;;;;;4942780;28;20036;-71
2023/04/09 03:14:31;;;;;;;78.03;45.10;;;10.20;99.90;;;;;;4930665;29;20031;-71
2023/04/09 03:16:57;;;;;;;74.10;43.28;;;10.20;99.90;;;;;;4935505;29;20590;-71
2023/04/09 03:19:23;;;;;;;71.53;41.90;;;10.10;99.90;;;;;;4930516;29;20032;-71
2023/04/09 03:21:50;;;;;;;71.13;40.13;;;10.10;99.90;;;;;;4926740;29;20084;-72
2023/04/09 03:24:16;;;;;;;74.40;41.88;;;10.00;99.90;;;;;;4930597;29;20040;-72
2023/04/09 03:26:41;;;;;;;69.95;41.63;;;10.00;99.90;;;;;;4937374;29;20433;-72
2023/04/09 03:29:07;;;;;;;75.05;42.50;;;10.00;99.90;;;;;;4927284;29;20024;-72
2023/04/09 03:31:32;;;;;;;81.63;46.03;;;9.90;99.90;;;;;;4933491;29;20391;-71
2023/04/09 03:33:58;;;;;;;74.82;43.15;;;9.90;99.90;;;;;;4938835;28;20107;-71
2023/04/09 03:36:24;;;;;;;81.55;43.50;;;9.80;99.90;;;;;;4931188;29;20036;-72
2023/04/09 03:38:49;;;;;;;71.10;40.60;;;9.80;99.90;;;;;;4935532;28;20043;-71
2023/04/09 03:41:15;;;;;;;73.60;41.97;;;9.70;99.90;;;;;;4927107;29;20040;-71
2023/04/09 03:43:41;;;;;;;76.68;42.92;;;9.70;99.90;;;;;;4930808;29;20374;-71
2023/04/09 03:46:14;;;;;;;76.10;43.42;;;9.70;99.90;;;;;;4935238;29;20123;-72
2023/04/09 03:48:40;;;;;;;56.15;33.20;;;9.70;99.90;;;;;;4946919;28;20443;-71
2023/04/09 03:51:06;;;;;;;70.32;39.30;;;9.60;99.90;;;;;;4935889;29;21039;-72
2023/04/09 03:53:31;;;;;;;67.63;39.78;;;9.60;99.90;;;;;;4930323;29;20031;-72
2023/04/09 03:55:57;;;;;;;79.53;43.78;;;9.50;99.90;;;;;;4933076;29;20031;-72
2023/04/09 03:58:23;;;;;;;77.88;43.10;;;9.50;99.90;;;;;;4925780;29;20516;-72
2023/04/09 04:00:48;;;;;;;69.30;40.30;;;9.50;99.90;;;;;;4932081;29;20020;-72
2023/04/09 04:03:15;;;;;;;77.82;42.88;;;9.50;99.90;;;;;;4931717;29;20038;-72
2023/04/09 04:05:41;;;;;;;74.47;41.47;;;9.40;99.90;;;;;;4924510;29;20515;-71
2023/04/09 04:08:07;;;;;;;69.78;40.53;;;9.40;99.90;;;;;;4928871;29;20032;-71
2023/04/09 04:10:35;;;;;;;68.45;38.88;;;9.40;99.90;;;;;;4931226;29;20142;-71
2023/04/09 04:13:01;;;;;;;67.72;38.53;;;9.30;99.90;;;;;;4924760;29;20111;-72
2023/04/09 04:15:27;;;;;;;72.72;40.28;;;9.20;99.90;;;;;;4933249;29;20433;-71
2023/04/09 04:17:53;;;;;;;68.68;39.08;;;9.10;99.90;;;;;;4926898;29;20114;-71
2023/04/09 04:20:19;;;;;;;65.40;37.55;;;9.10;99.90;;;;;;4937480;29;20465;-72
2023/04/09 04:22:45;;;;;;;69.07;37.83;;;9.10;99.90;;;;;;4931537;29;20463;-72
2023/04/09 04:25:10;;;;;;;70.97;40.15;;;9.20;99.90;;;;;;4926650;29;20058;-71
2023/04/09 04:27:36;;;;;;;70.28;40.08;;;9.10;99.90;;;;;;4926349;29;20035;-71
2023/04/09 04:30:02;;;;;;;71.45;39.58;;;9.10;99.90;;;;;;4926637;29;20036;-71
2023/04/09 04:32:28;;;;;;;60.00;34.55;;;9.00;99.90;;;;;;4927277;29;20039;-71
2023/04/09 04:34:53;;;;;;;51.58;31.48;;;9.00;99.90;;;;;;4936395;29;20051;-71
2023/04/09 04:37:19;;;;;;;42.70;25.75;;;9.00;99.90;;;;;;4932827;28;20040;-71
2023/04/09 04:39:45;;;;;;;41.28;25.45;;;8.90;99.90;;;;;;4933176;29;20039;-71
2023/04/09 04:42:11;;;;;;;51.63;31.65;;;9.00;99.90;;;;;;4928755;29;20031;-71
2023/04/09 04:44:36;;;;;;;49.17;27.73;;;9.00;99.90;;;;;;4937879;29;20503;-72
2023/04/09 04:47:02;;;;;;;50.85;30.77;;;8.90;99.90;;;;;;4933443;29;20405;-71
2023/04/09 04:49:28;;;;;;;54.10;31.00;;;8.90;99.90;;;;;;4929944;29;20028;-71
2023/04/09 04:51:53;;;;;;;56.08;32.55;;;8.80;99.90;;;;;;4927472;29;20043;-72
2023/04/09 04:54:19;;;;;;;58.45;33.90;;;8.80;99.90;;;;;;4929921;29;20521;-71
2023/04/09 04:56:45;;;;;;;58.88;33.78;;;8.80;99.90;;;;;;4925417;29;20051;-72
2023/04/09 04:59:10;;;;;;;59.15;34.17;;;8.80;99.90;;;;;;4923218;29;20102;-71
2023/04/09 05:01:36;;;;;;;59.65;34.70;;;8.70;99.90;;;;;;4930183;29;20055;-72
2023/04/09 05:04:02;;;;;;;52.65;31.52;;;8.70;99.90;;;;;;4933999;29;20024;-71
2023/04/09 05:06:28;;;;;;;47.00;29.20;;;8.70;99.90;;;;;;4925691;29;20095;-71
2023/04/09 05:08:56;;;;;;;52.40;29.33;;;8.60;99.90;;;;;;4931868;29;20466;-72
2023/04/09 05:11:26;;;;;;;54.35;31.42;;;8.60;99.90;;;;;;4928846;29;20031;-71
2023/04/09 05:13:52;;;;;;;63.13;35.92;;;8.60;99.90;;;;;;4928141;29;20094;-71
2023/04/09 05:16:21;;;;;;;69.70;38.63;;;8.50;99.90;;;;;;4920447;29;20510;-71
2023/04/09 05:18:46;;;;;;;82.05;45.25;;;8.50;99.90;;;;;;4926392;29;20023;-72
2023/04/09 05:21:12;;;;;;;78.70;44.63;;;8.50;99.90;;;;;;4922800;29;20114;-71
2023/04/09 05:23:38;;;;;;;75.68;43.47;;;8.60;99.90;;;;;;4927486;29;20075;-71
2023/04/09 05:26:03;;;;;;;77.57;43.30;;;8.60;99.90;;;;;;4923299;29;20032;-72
2023/04/09 05:28:29;;;;;;;76.47;42.42;;;8.60;99.90;;;;;;4932414;29;20027;-71
2023/04/09 05:30:55;;;;;;;78.00;44.10;;;8.60;99.90;;;;;;4925440;29;20466;-71
2023/04/09 05:33:20;;;;;;;79.18;43.40;;;8.60;99.90;;;;;;4928510;29;20019;-71
2023/04/09 05:35:46;;;;;;;76.25;41.95;;;8.60;99.90;;;;;;4926743;29;20446;-71
2023/04/09 05:38:15;;;;;;;78.43;43.67;;;8.60;99.90;;;;;;4927035;29;20032;-71
2023/04/09 05:40:43;;;;;;;70.78;40.10;;;8.60;99.90;;;;;;4919834;29;20036;-71
2023/04/09 05:43:08;;;;;;;67.60;39.05;;;8.60;99.90;;;;;;4926308;29;20079;-71
2023/04/09 05:45:34;;;;;;;59.55;34.15;;;8.50;99.90;;;;;;4921872;29;20027;-71
2023/04/09 05:48:00;;;;;;;59.25;34.88;;;8.50;99.90;;;;;;4928981;29;20130;-71
2023/04/09 05:50:26;;;;;;;60.58;37.50;;;8.60;99.90;;;;;;4931464;29;20124;-71
2023/04/09 05:52:51;;;;;;;63.78;37.25;;;8.60;99.90;;;;;;4931278;29;20063;-71
2023/04/09 05:55:17;;;;;;;67.55;39.13;;;8.60;99.90;;;;;;4930669;29;20046;-71
2023/04/09 05:57:44;;;;;;;62.60;39.13;;;8.60;99.90;;;;;;4923861;29;20501;-71
2023/04/09 06:00:10;;;;;;;72.28;40.67;;;8.50;99.90;;;;;;4921670;29;20020;-71
2023/04/09 06:02:36;;;;;;;76.18;44.03;;;8.50;99.90;;;;;;4929956;29;20028;-71
2023/04/09 06:05:02;;;;;;;67.03;37.78;;;8.50;99.90;;;;;;4925689;29;20035;-71
2023/04/09 06:07:28;;;;;;;59.60;35.50;;;8.50;99.90;;;;;;4931510;29;20027;-71
2023/04/09 06:09:55;;;;;;;49.30;28.88;;;8.60;99.90;;;;;;4924739;29;20481;-71
2023/04/09 06:12:21;;;;;;;53.80;29.52;;;8.60;99.90;;;;;;4930421;29;20113;-71
2023/04/09 06:14:49;;;;;;;52.33;29.45;;;8.50;99.90;;;;;;4931040;29;20028;-71
2023/04/09 06:17:15;;;;;;;57.35;33.17;;;8.60;99.90;;;;;;4931046;29;20034;-71
2023/04/09 06:19:41;;;;;;;50.08;29.38;;;8.60;99.90;;;;;;4924049;29;20023;-71
2023/04/09 06:22:09;;;;;;;46.10;27.73;;;8.70;99.90;;;;;;4927824;29;20043;-71
2023/04/09 06:24:35;;;;;;;45.92;28.00;;;8.70;99.90;;;;;;4928089;29;20532;-71
2023/04/09 06:27:01;;;;;;;44.83;28.17;;;8.80;99.90;;;;;;4927312;29;20122;-72
2023/04/09 06:29:26;;;;;;;42.60;25.77;;;8.80;99.90;;;;;;4927202;29;20685;-71
2023/04/09 06:31:52;;;;;;;46.28;27.52;;;8.90;99.90;;;;;;4934250;29;20099;-71
2023/04/09 06:34:18;;;;;;;52.70;29.85;;;9.00;99.90;;;;;;4928226;29;20366;-71
2023/04/09 06:36:44;;;;;;;56.78;32.88;;;9.00;99.90;;;;;;4926117;29;20037;-71
2023/04/09 06:39:10;;;;;;;53.58;32.13;;;9.10;99.90;;;;;;4927854;29;20024;-71
2023/04/09 06:41:36;;;;;;;69.30;36.20;;;9.00;99.90;;;;;;4928140;29;20036;-71
2023/04/09 06:44:01;;;;;;;68.68;36.00;;;9.00;99.90;;;;;;4936868;29;20032;-71
2023/04/09 06:46:27;;;;;;;62.83;35.70;;;9.20;99.90;;;;;;4937979;29;20016;-71
2023/04/09 06:48:53;;;;;;;79.82;41.72;;;9.20;99.90;;;;;;4934686;29;20031;-72
2023/04/09 06:51:19;;;;;;;85.40;44.38;;;9.20;99.90;;;;;;4928802;29;20075;-72
2023/04/09 06:53:46;;;;;;;87.70;49.03;;;9.20;99.90;;;;;;4928347;29;20492;-71
2023/04/09 06:56:12;;;;;;;84.47;48.00;;;9.30;99.90;;;;;;4924513;29;20082;-70
2023/04/09 06:58:38;;;;;;;84.80;45.90;;;9.30;99.90;;;;;;4934462;29;20027;-74
2023/04/09 07:01:05;;;;;;;79.85;45.10;;;9.40;99.90;;;;;;4928634;29;20426;-76
2023/04/09 07:03:31;;;;;;;87.60;46.70;;;9.50;99.90;;;;;;4929831;29;20028;-72
2023/04/09 07:05:56;;;;;;;83.82;46.92;;;9.40;99.90;;;;;;4931688;28;20031;-74
2023/04/09 07:08:22;;;;;;;85.07;45.90;;;9.50;99.90;;;;;;4934109;29;20385;-73
2023/04/09 07:10:48;;;;;;;82.38;48.90;;;9.60;99.90;;;;;;4930769;29;20039;-75
2023/04/09 07:13:14;;;;;;;83.72;45.08;;;9.60;99.90;;;;;;4937502;29;20023;-75
2023/04/09 07:15:39;;;;;;;78.72;45.90;;;9.70;99.90;;;;;;4927150;29;20036;-72
2023/04/09 07:18:05;;;;;;;84.38;45.45;;;9.70;99.90;;;;;;4930154;29;20046;-77
2023/04/09 07:20:33;;;;;;;79.30;46.65;;;9.80;99.90;;;;;;4933532;29;20040;-70
2023/04/09 07:22:59;;;;;;;80.97;48.58;;;9.80;99.90;;;;;;4931502;29;20099;-71
2023/04/09 07:25:25;;;;;;;76.43;48.20;;;10.00;99.90;;;;;;4924342;29;20444;-71
2023/04/09 07:27:51;;;;;;;75.90;48.60;;;10.20;99.90;;;;;;4929873;29;20053;-72
2023/04/09 07:30:17;;;;;;;81.88;47.22;;;10.10;99.90;;;;;;4935712;29;20487;-71
2023/04/09 07:32:42;;;;;;;75.28;44.97;;;10.20;99.90;;;;;;4927552;29;20035;-72
2023/04/09 07:35:09;;;;;;;79.28;45.33;;;10.30;99.90;;;;;;4933800;29;20020;-73
2023/04/09 07:37:35;;;;;;;83.32;44.75;;;10.30;99.90;;;;;;4925194;29;20528;-72
2023/04/09 07:40:02;;;;;;;67.97;43.25;;;10.40;99.90;;;;;;4930911;29;20064;-72
2023/04/09 07:42:28;;;;;;;70.15;42.72;;;10.60;99.90;;;;;;4926049;29;20051;-72
2023/04/09 07:44:55;;;;;;;71.97;45.80;;;10.70;99.90;;;;;;4935964;29;20024;-72
2023/04/09 07:47:22;;;;;;;69.78;43.75;;;10.80;99.90;;;;;;4930640;29;20020;-72
2023/04/09 07:49:48;;;;;;;71.45;45.25;;;10.90;99.90;;;;;;4923520;29;20056;-72
2023/04/09 07:52:14;;;;;;;72.85;43.17;;;11.00;99.90;;;;;;4934087;28;20542;-76
2023/04/09 07:54:40;;;;;;;66.55;41.83;;;11.10;99.90;;;;;;4932232;29;20047;-73
2023/04/09 07:58:04;;;;;;;75.50;50.33;;;11.40;99.90;;;;;;5099728;27;20120;-72
2023/04/09 08:12:29;;;;;;;73.25;51.83;;;11.60;99.90;;;;;;5063174;28;21142;-67
2023/04/09 08:14:54;;;;;;;69.60;48.17;;;11.80;99.90;;;;;;5064466;28;20101;-68
2023/04/09 08:17:21;;;;;;;67.88;48.78;;;12.00;99.90;;;;;;5041609;27;20067;-67
2023/04/09 08:19:48;;;;;;;70.50;49.10;;;12.20;99.90;;;;;;5047645;27;20025;-70
2023/04/09 08:22:14;;;;;;;72.35;47.08;;;12.40;99.90;;;;;;5052501;27;20039;-67
2023/04/09 08:24:42;;;;;;;69.88;46.80;;;12.60;99.90;;;;;;5039335;27;20020;-67
2023/04/09 08:27:08;;;;;;;70.10;50.53;;;12.80;99.90;;;;;;5039781;27;20021;-69
2023/04/09 08:29:34;;;;;;;71.18;47.00;;;12.70;99.90;;;;;;5050389;27;20025;-68
2023/04/09 08:32:00;;;;;;;67.15;47.22;;;12.60;99.90;;;;;;5047208;27;20719;-68
2023/04/09 08:34:26;;;;;;;66.93;47.40;;;12.50;99.90;;;;;;5050832;27;20059;-69
2023/04/09 08:36:51;;;;;;;77.80;52.63;;;12.40;99.90;;;;;;5054027;27;20537;-68
2023/04/09 08:39:20;;;;;;;69.75;49.35;;;12.40;99.90;;;;;;5037821;27;20108;-69
2023/04/09 08:41:49;;;;;;;68.93;46.85;;;12.60;99.90;;;;;;5047047;27;20045;-68
2023/04/09 08:44:15;;;;;;;69.68;47.55;;;12.70;99.90;;;;;;5042638;27;20056;-67
2023/04/09 08:46:41;;;;;;;72.97;50.75;;;12.80;99.90;;;;;;5049171;27;20037;-69
2023/04/09 08:49:09;;;;;;;70.35;49.88;;;12.80;99.90;;;;;;5036986;27;20042;-67
2023/04/09 08:51:35;;;;;;;78.45;52.60;;;12.80;99.90;;;;;;5045073;27;20021;-71
2023/04/09 08:54:01;;;;;;;71.68;50.53;;;12.90;99.90;;;;;;5059163;27;20021;-68
2023/04/09 08:56:28;;;;;;;67.00;45.10;;;13.20;99.90;;;;;;5042855;27;20021;-68
2023/04/09 08:58:54;;;;;;;68.95;47.90;;;13.30;99.90;;;;;;5049961;27;20041;-68
2023/04/09 09:01:30;;;;;;;69.82;47.17;;;13.40;99.90;;;;;;5046927;27;20434;-68
2023/04/09 09:04:03;;;;;;;64.57;44.05;;;13.60;99.90;;;;;;5051892;27;20013;-68
2023/04/09 09:06:32;;;;;;;65.38;44.28;;;13.70;99.90;;;;;;5123499;27;20097;-68
2023/04/09 09:09:08;;;;;;;62.30;41.60;;;13.80;99.90;;;;;;5138504;27;20019;-68
2023/04/09 09:11:36;;;;;;;64.20;44.95;;;13.80;99.90;;;;;;5137805;27;20152;-68
2023/04/09 09:14:05;;;;;;;62.17;43.15;;;13.80;99.90;;;;;;5124799;27;20019;-69
2023/04/09 09:16:33;;;;;;;58.72;42.60;;;13.80;99.90;;;;;;5128446;27;20019;-69
2023/04/09 09:19:02;;;;;;;62.33;46.10;;;13.90;99.90;;;;;;5125769;27;20023;-69
2023/04/09 09:21:28;;;;;;;65.45;45.58;;;13.80;99.90;;;;;;5123205;27;20036;-71
2023/04/09 09:23:55;;;;;;;59.88;44.38;;;13.80;99.90;;;;;;5123951;27;20416;-69
2023/04/09 09:26:26;;;;;;;63.55;45.63;;;13.80;99.90;;;;;;5124565;27;20031;-70
2023/04/09 09:28:52;;;;;;;60.42;43.40;;;13.70;99.90;;;;;;5127232;27;20098;-68
2023/04/09 09:31:20;;;;;;;59.33;43.38;;;13.80;99.90;;;;;;5127579;27;20025;-69
2023/04/09 09:33:47;;;;;;;59.75;43.20;;;14.20;99.90;;;;;;5129903;27;20008;-69
2023/04/09 09:36:13;;;;;;;59.33;43.08;;;14.50;99.90;;;;;;5129879;27;20039;-69
2023/04/09 09:38:57;;;;;;;55.60;40.53;;;14.50;99.90;;;;;;5128530;27;20027;-69
2023/04/09 09:41:23;;;;;;;61.67;41.65;;;14.70;99.90;;;;;;5125910;27;20036;-69
2023/04/09 09:43:49;;;;;;;58.30;41.30;;;14.70;99.90;;;;;;5126642;27;20026;-72
2023/04/09 09:46:16;;;;;;;54.08;38.85;;;15.00;99.90;;;;;;5122051;27;20380;-69
2023/04/09 09:48:43;;;;;;;51.40;36.90;;;15.20;99.90;;;;;;5122426;27;20047;-69
2023/04/09 09:51:10;;;;;;;46.50;34.17;;;15.40;99.90;;;;;;5131625;27;20030;-73
2023/04/09 09:53:37;;;;;;;44.65;32.45;;;15.20;99.90;;;;;;5124685;27;20591;-71
2023/04/09 09:56:04;;;;;;;44.63;34.40;;;15.60;99.90;;;;;;5124929;27;20110;-70
2023/04/09 09:58:40;;;;;;;41.50;30.92;;;15.80;99.90;;;;;;5127681;27;20494;-70
2023/04/09 10:01:09;;;;;;;40.45;29.60;;;15.80;99.90;;;;;;5128486;27;20530;-71
2023/04/09 10:03:37;;;;;;;35.90;25.55;;;15.90;99.90;;;;;;5128963;27;20023;-69
2023/04/09 10:06:03;;;;;;;34.60;26.30;;;16.00;99.90;;;;;;5126088;27;20031;-71
2023/04/09 10:08:32;;;;;;;34.28;26.45;;;16.20;99.90;;;;;;5126212;27;20026;-70
2023/04/09 10:11:00;;;;;;;37.35;24.35;;;16.30;99.90;;;;;;5131660;27;20074;-69
2023/04/09 10:13:33;;;;;;;33.10;26.05;;;16.30;99.90;;;;;;5125597;27;20540;-68
2023/04/09 10:16:00;;;;;;;32.15;25.30;;;16.40;99.90;;;;;;5133027;27;20027;-67
2023/04/09 10:18:27;;;;;;;36.60;27.73;;;16.00;99.90;;;;;;5117848;27;20031;-69
2023/04/09 10:21:04;;;;;;;40.05;29.02;;;15.70;99.90;;;;;;5127380;27;20041;-68
2023/04/09 10:23:43;;;;;;;32.55;25.95;;;15.90;99.90;;;;;;5120684;27;20509;-70
2023/04/09 10:26:09;;;;;;;28.30;22.60;;;16.30;99.90;;;;;;5125719;27;20498;-70
2023/04/09 10:28:37;;;;;;;29.23;22.88;;;16.40;99.90;;;;;;5117564;27;20055;-69
2023/04/09 10:31:07;;;;;;;29.40;22.40;;;16.60;99.90;;;;;;5120156;27;20039;-69
2023/04/09 10:33:36;;;;;;;29.83;23.05;;;16.60;99.90;;;;;;5127090;27;20491;-69
2023/04/09 10:36:11;;;;;;;31.58;23.25;;;16.80;99.90;;;;;;5127935;27;20463;-68
2023/04/09 10:38:37;;;;;;;29.15;22.02;;;17.10;99.90;;;;;;5120285;27;20068;-68
2023/04/09 10:41:10;;;;;;;32.22;24.60;;;16.80;99.90;;;;;;5122341;27;20055;-69
2023/04/09 10:43:36;;;;;;;31.42;24.92;;;16.60;99.90;;;;;;5127153;27;20023;-68
2023/04/09 10:46:05;;;;;;;32.42;24.40;;;16.40;99.90;;;;;;5130296;27;20374;-68
2023/04/09 10:48:34;;;;;;;34.88;27.58;;;16.30;99.90;;;;;;5128051;27;20398;-68
2023/04/09 10:51:05;;;;;;;38.33;27.83;;;16.10;99.90;;;;;;5122625;27;20161;-67
2023/04/09 10:53:31;;;;;;;30.85;25.10;;;16.10;99.90;;;;;;5123129;27;20023;-68
2023/04/09 10:55:57;;;;;;;28.95;20.52;;;15.90;99.90;;;;;;5126310;27;20023;-68
2023/04/09 10:58:22;;;;;;;26.83;21.17;;;15.90;99.90;;;;;;5122154;27;20031;-68
2023/04/09 11:00:49;;;;;;;27.33;20.65;;;15.90;99.90;;;;;;5130274;27;20131;-68
2023/04/09 11:03:18;;;;;;;24.55;19.50;;;15.70;99.90;;;;;;5129046;27;20152;-68
2023/04/09 11:05:48;;;;;;;21.85;17.25;;;15.80;99.90;;;;;;5121465;27;20111;-68
2023/04/09 11:08:15;;;;;;;21.15;16.35;;;15.70;99.90;;;;;;5127427;27;20459;-68
2023/04/09 11:10:43;;;;;;;21.42;15.93;;;15.60;99.90;;;;;;5128260;27;20035;-70
2023/04/09 11:13:16;;;;;;;17.42;14.57;;;15.70;99.90;;;;;;5123842;27;20471;-69
2023/04/09 11:15:43;;;;;;;19.70;14.50;;;16.00;99.90;;;;;;5119719;27;20042;-68
2023/04/09 11:18:14;;;;;;;19.55;15.27;;;16.40;99.90;;;;;;5125124;27;20438;-69
2023/04/09 11:20:39;;;;;;;19.33;15.35;;;16.60;99.90;;;;;;5126444;27;20043;-67
2023/04/09 11:23:06;;;;;;;17.48;13.93;;;16.60;99.90;;;;;;5118336;27;20041;-68
2023/04/09 11:25:33;;;;;;;17.08;14.63;;;16.90;99.90;;;;;;5125410;27;20037;-68
2023/04/09 11:28:02;;;;;;;18.42;14.95;;;17.20;99.90;;;;;;5120476;27;20118;-68
2023/04/09 11:30:29;;;;;;;19.58;14.82;;;17.50;99.90;;;;;;5123275;27;20021;-69
2023/04/09 11:32:55;;;;;;;21.92;18.15;;;17.80;99.90;;;;;;5123729;27;20027;-68
2023/04/09 11:35:21;;;;;;;28.25;20.73;;;17.50;99.90;;;;;;5125109;27;20015;-68
2023/04/09 11:37:49;;;;;;;22.67;17.20;;;17.30;99.90;;;;;;5121731;27;20046;-67
2023/04/09 11:40:19;;;;;;;20.55;16.52;;;17.20;99.90;;;;;;5122785;27;20046;-68
2023/04/09 11:42:47;;;;;;;22.02;18.00;;;17.10;99.90;;;;;;5120608;27;20436;-68
2023/04/09 11:45:15;;;;;;;23.88;18.98;;;17.10;99.90;;;;;;5121855;27;20020;-68
2023/04/09 11:47:41;;;;;;;25.13;20.60;;;16.90;99.90;;;;;;5122623;27;20084;-68
2023/04/09 11:50:08;;;;;;;25.83;19.40;;;16.90;99.90;;;;;;5120876;27;20027;-69
2023/04/09 11:52:34;;;;;;;27.92;21.42;;;16.90;99.90;;;;;;5122681;27;20475;-68
2023/04/09 11:55:04;;;;;;;26.23;22.52;;;16.80;99.90;;;;;;5123611;27;20062;-68
2023/04/09 11:57:44;;;;;;;26.20;20.75;;;16.70;99.90;;;;;;5126732;27;20062;-68
2023/04/09 12:00:13;;;;;;;22.08;17.60;;;16.80;99.90;;;;;;5121707;27;20118;-69
2023/04/09 12:02:40;;;;;;;26.38;20.05;;;16.80;99.90;;;;;;5120465;28;20031;-68
2023/04/09 12:05:08;;;;;;;27.98;20.73;;;16.70;99.90;;;;;;5121938;27;20023;-69
2023/04/09 12:07:34;;;;;;;27.45;21.27;;;16.60;99.90;;;;;;5120946;28;20030;-67
2023/04/09 12:10:05;;;;;;;27.23;19.55;;;16.80;99.90;;;;;;5123233;27;20544;-69
2023/04/09 12:12:30;;;;;;;25.90;20.60;;;16.90;99.90;;;;;;5122224;28;20539;-68
2023/04/09 12:14:58;;;;;;;26.77;20.50;;;16.70;99.90;;;;;;5122152;27;20020;-69
2023/04/09 12:17:23;;;;;;;26.48;22.38;;;16.60;99.90;;;;;;5124493;27;20410;-69
2023/04/09 12:19:49;;;;;;;25.02;21.05;;;16.70;99.90;;;;;;5119706;27;20031;-67
2023/04/09 12:22:15;;;;;;;25.02;20.25;;;16.50;99.90;;;;;;5122563;28;20031;-69
2023/04/09 12:24:40;;;;;;;29.10;22.38;;;16.50;99.90;;;;;;5118954;28;20024;-68
2023/04/09 12:27:06;;;;;;;26.00;20.10;;;16.60;99.90;;;;;;5119674;28;20035;-70
2023/04/09 12:29:32;;;;;;;27.08;19.92;;;16.60;99.90;;;;;;5122545;27;20459;-68
2023/04/09 12:31:58;;;;;;;25.23;20.02;;;16.50;99.90;;;;;;5124414;28;20028;-68
2023/04/09 12:34:26;;;;;;;28.45;20.52;;;16.60;99.90;;;;;;5120841;27;20039;-68
2023/04/09 12:36:51;;;;;;;24.10;19.52;;;16.50;99.90;;;;;;5120480;28;20486;-68
2023/04/09 12:39:19;;;;;;;25.77;20.35;;;16.50;99.90;;;;;;5121266;28;20028;-66
2023/04/09 12:41:45;;;;;;;24.58;20.00;;;16.60;99.90;;;;;;5117647;28;20055;-69
2023/04/09 12:44:10;;;;;;;25.65;19.90;;;16.50;99.90;;;;;;5126310;27;20467;-68